sensor_id;sensor_type;location;lat;lon;timestamp;P1;durP1;ratioP1;P2;durP2;ratioP2
32523;SDS011;18965;52.242;20.886;2023-07-16T00:00:01;7.38;;;5.90;;
32523;SDS011;18965;52.242;20.886;2023-07-16T00:02:30;8.47;;;5.77;;
32523;SDS011;18965;52.242;20.886;2023-07-16T00:04:56;7.00;;;5.15;;
32523;SDS011;18965;52.242;20.886;2023-07-16T00:07:24;8.15;;;5.88;;
32523;SDS011;18965;52.242;20.886;2023-07-16T00:10:10;9.30;;;5.93;;
32523;SDS011;18965;52.242;20.886;2023-07-16T00:12:36;9.00;;;7.07;;
32523;SDS011;18965;52.242;20.886;2023-07-16T00:15:11;11.75;;;8.80;;
32523;SDS011;18965;52.242;20.886;2023-07-16T00:17:40;9.00;;;6.50;;
32523;SDS011;18965;52.242;20.886;2023-07-16T00:20:06;7.72;;;5.95;;
32523;SDS011;18965;52.242;20.886;2023-07-16T00:22:32;6.32;;;5.57;;
32523;SDS011;18965;52.242;20.886;2023-07-16T00:24:58;5.97;;;5.35;;
32523;SDS011;18965;52.242;20.886;2023-07-16T00:27:27;6.25;;;5.65;;
32523;SDS011;18965;52.242;20.886;2023-07-16T00:29:53;8.03;;;5.53;;
32523;SDS011;18965;52.242;20.886;2023-07-16T00:32:27;7.47;;;5.60;;
32523;SDS011;18965;52.242;20.886;2023-07-16T00:34:56;7.72;;;5.57;;
32523;SDS011;18965;52.242;20.886;2023-07-16T00:37:21;10.50;;;6.40;;
32523;SDS011;18965;52.242;20.886;2023-07-16T00:39:53;10.07;;;6.78;;
32523;SDS011;18965;52.242;20.886;2023-07-16T00:42:19;11.95;;;6.97;;
32523;SDS011;18965;52.242;20.886;2023-07-16T00:44:48;10.18;;;6.25;;
32523;SDS011;18965;52.242;20.886;2023-07-16T00:47:13;7.45;;;5.68;;
32523;SDS011;18965;52.242;20.886;2023-07-16T00:49:39;8.82;;;6.07;;
32523;SDS011;18965;52.242;20.886;2023-07-16T00:52:14;8.27;;;6.13;;
32523;SDS011;18965;52.242;20.886;2023-07-16T00:54:53;7.70;;;6.25;;
32523;SDS011;18965;52.242;20.886;2023-07-16T00:57:22;9.18;;;6.30;;
32523;SDS011;18965;52.242;20.886;2023-07-16T00:59:48;10.27;;;6.68;;
32523;SDS011;18965;52.242;20.886;2023-07-16T01:02:25;8.32;;;6.43;;
32523;SDS011;18965;52.242;20.886;2023-07-16T01:05:00;7.18;;;5.97;;
32523;SDS011;18965;52.242;20.886;2023-07-16T01:07:46;8.77;;;5.85;;
32523;SDS011;18965;52.242;20.886;2023-07-16T01:10:51;10.15;;;5.85;;
32523;SDS011;18965;52.242;20.886;2023-07-16T01:13:38;8.55;;;6.00;;
32523;SDS011;18965;52.242;20.886;2023-07-16T01:16:03;6.60;;;5.88;;
32523;SDS011;18965;52.242;20.886;2023-07-16T01:18:29;7.60;;;6.35;;
32523;SDS011;18965;52.242;20.886;2023-07-16T01:20:58;7.22;;;6.47;;
32523;SDS011;18965;52.242;20.886;2023-07-16T01:31:36;6.88;;;6.22;;
32523;SDS011;18965;52.242;20.886;2023-07-16T01:34:12;8.77;;;6.25;;
32523;SDS011;18965;52.242;20.886;2023-07-16T01:36:39;6.60;;;5.35;;
32523;SDS011;18965;52.242;20.886;2023-07-16T01:39:06;7.35;;;6.18;;
32523;SDS011;18965;52.242;20.886;2023-07-16T01:41:34;7.35;;;6.18;;
32523;SDS011;18965;52.242;20.886;2023-07-16T01:44:00;8.02;;;5.97;;
32523;SDS011;18965;52.242;20.886;2023-07-16T01:46:35;9.23;;;5.63;;
32523;SDS011;18965;52.242;20.886;2023-07-16T01:49:01;7.32;;;6.43;;
32523;SDS011;18965;52.242;20.886;2023-07-16T01:51:26;7.20;;;5.72;;
32523;SDS011;18965;52.242;20.886;2023-07-16T01:53:52;8.27;;;6.38;;
32523;SDS011;18965;52.242;20.886;2023-07-16T01:56:24;8.23;;;6.18;;
32523;SDS011;18965;52.242;20.886;2023-07-16T01:59:13;6.95;;;6.15;;
32523;SDS011;18965;52.242;20.886;2023-07-16T02:01:38;7.95;;;6.60;;
32523;SDS011;18965;52.242;20.886;2023-07-16T02:04:04;7.80;;;6.38;;
32523;SDS011;18965;52.242;20.886;2023-07-16T02:06:36;6.18;;;5.57;;
32523;SDS011;18965;52.242;20.886;2023-07-16T02:09:02;6.32;;;5.47;;
32523;SDS011;18965;52.242;20.886;2023-07-16T02:11:28;10.00;;;6.28;;
32523;SDS011;18965;52.242;20.886;2023-07-16T02:14:21;8.68;;;5.82;;
32523;SDS011;18965;52.242;20.886;2023-07-16T02:16:46;8.00;;;6.57;;
32523;SDS011;18965;52.242;20.886;2023-07-16T02:19:12;11.45;;;6.95;;
32523;SDS011;18965;52.242;20.886;2023-07-16T02:21:43;8.10;;;6.43;;
32523;SDS011;18965;52.242;20.886;2023-07-16T02:24:09;9.80;;;6.88;;
32523;SDS011;18965;52.242;20.886;2023-07-16T02:26:49;8.77;;;6.97;;
32523;SDS011;18965;52.242;20.886;2023-07-16T02:29:15;8.40;;;6.50;;
32523;SDS011;18965;52.242;20.886;2023-07-16T02:31:41;8.32;;;6.38;;
32523;SDS011;18965;52.242;20.886;2023-07-16T02:34:11;8.68;;;6.60;;
32523;SDS011;18965;52.242;20.886;2023-07-16T02:36:39;10.30;;;7.03;;
32523;SDS011;18965;52.242;20.886;2023-07-16T02:39:05;9.10;;;6.38;;
32523;SDS011;18965;52.242;20.886;2023-07-16T02:41:31;7.05;;;6.13;;
32523;SDS011;18965;52.242;20.886;2023-07-16T02:44:00;7.03;;;6.07;;
32523;SDS011;18965;52.242;20.886;2023-07-16T02:46:33;8.65;;;6.47;;
32523;SDS011;18965;52.242;20.886;2023-07-16T02:48:59;8.75;;;6.85;;
32523;SDS011;18965;52.242;20.886;2023-07-16T02:51:25;7.93;;;6.80;;
32523;SDS011;18965;52.242;20.886;2023-07-16T02:53:54;7.93;;;6.35;;
32523;SDS011;18965;52.242;20.886;2023-07-16T02:56:23;7.63;;;6.40;;
32523;SDS011;18965;52.242;20.886;2023-07-16T02:58:48;8.80;;;6.30;;
32523;SDS011;18965;52.242;20.886;2023-07-16T03:01:17;10.10;;;7.10;;
32523;SDS011;18965;52.242;20.886;2023-07-16T03:03:43;7.38;;;6.43;;
32523;SDS011;18965;52.242;20.886;2023-07-16T03:06:09;9.40;;;6.97;;
32523;SDS011;18965;52.242;20.886;2023-07-16T03:08:35;7.55;;;6.72;;
32523;SDS011;18965;52.242;20.886;2023-07-16T03:11:00;7.43;;;6.40;;
32523;SDS011;18965;52.242;20.886;2023-07-16T03:13:37;9.85;;;6.80;;
32523;SDS011;18965;52.242;20.886;2023-07-16T03:16:03;7.38;;;6.63;;
32523;SDS011;18965;52.242;20.886;2023-07-16T03:18:29;9.98;;;6.97;;
32523;SDS011;18965;52.242;20.886;2023-07-16T03:20:57;11.75;;;7.05;;
32523;SDS011;18965;52.242;20.886;2023-07-16T03:23:26;9.88;;;7.35;;
32523;SDS011;18965;52.242;20.886;2023-07-16T03:25:55;8.73;;;7.18;;
32523;SDS011;18965;52.242;20.886;2023-07-16T03:28:21;7.30;;;6.60;;
32523;SDS011;18965;52.242;20.886;2023-07-16T03:30:47;7.97;;;6.57;;
32523;SDS011;18965;52.242;20.886;2023-07-16T03:33:20;9.88;;;7.15;;
32523;SDS011;18965;52.242;20.886;2023-07-16T03:35:59;11.75;;;6.97;;
32523;SDS011;18965;52.242;20.886;2023-07-16T03:38:24;10.70;;;6.72;;
32523;SDS011;18965;52.242;20.886;2023-07-16T03:40:53;9.57;;;7.10;;
32523;SDS011;18965;52.242;20.886;2023-07-16T03:43:18;9.15;;;6.90;;
32523;SDS011;18965;52.242;20.886;2023-07-16T03:45:45;8.32;;;6.95;;
32523;SDS011;18965;52.242;20.886;2023-07-16T03:48:11;11.20;;;7.28;;
32523;SDS011;18965;52.242;20.886;2023-07-16T03:50:36;12.10;;;7.53;;
32523;SDS011;18965;52.242;20.886;2023-07-16T03:53:02;8.35;;;6.70;;
32523;SDS011;18965;52.242;20.886;2023-07-16T03:55:28;9.35;;;6.90;;
32523;SDS011;18965;52.242;20.886;2023-07-16T03:57:54;9.98;;;6.97;;
32523;SDS011;18965;52.242;20.886;2023-07-16T04:00:22;10.57;;;7.05;;
32523;SDS011;18965;52.242;20.886;2023-07-16T04:02:48;8.70;;;6.90;;
32523;SDS011;18965;52.242;20.886;2023-07-16T04:05:17;9.27;;;7.45;;
32523;SDS011;18965;52.242;20.886;2023-07-16T04:07:43;7.70;;;6.63;;
32523;SDS011;18965;52.242;20.886;2023-07-16T04:10:12;7.43;;;6.70;;
32523;SDS011;18965;52.242;20.886;2023-07-16T04:12:47;9.77;;;7.53;;
32523;SDS011;18965;52.242;20.886;2023-07-16T04:15:13;8.68;;;7.38;;
32523;SDS011;18965;52.242;20.886;2023-07-16T04:17:44;12.95;;;6.93;;
32523;SDS011;18965;52.242;20.886;2023-07-16T04:20:10;10.68;;;7.05;;
32523;SDS011;18965;52.242;20.886;2023-07-16T04:22:36;10.82;;;7.10;;
32523;SDS011;18965;52.242;20.886;2023-07-16T04:25:02;9.20;;;7.05;;
32523;SDS011;18965;52.242;20.886;2023-07-16T04:27:42;9.18;;;6.78;;
32523;SDS011;18965;52.242;20.886;2023-07-16T04:30:14;8.07;;;6.78;;
32523;SDS011;18965;52.242;20.886;2023-07-16T04:32:39;10.60;;;7.35;;
32523;SDS011;18965;52.242;20.886;2023-07-16T04:35:16;7.78;;;6.97;;
32523;SDS011;18965;52.242;20.886;2023-07-16T04:37:51;8.27;;;7.28;;
32523;SDS011;18965;52.242;20.886;2023-07-16T04:40:17;8.65;;;6.50;;
32523;SDS011;18965;52.242;20.886;2023-07-16T04:42:46;7.97;;;6.90;;
32523;SDS011;18965;52.242;20.886;2023-07-16T04:45:12;8.95;;;7.32;;
32523;SDS011;18965;52.242;20.886;2023-07-16T04:50:07;7.60;;;6.82;;
32523;SDS011;18965;52.242;20.886;2023-07-16T04:52:33;8.45;;;7.30;;
32523;SDS011;18965;52.242;20.886;2023-07-16T04:55:01;8.40;;;6.72;;
32523;SDS011;18965;52.242;20.886;2023-07-16T04:57:27;7.90;;;6.63;;
32523;SDS011;18965;52.242;20.886;2023-07-16T04:59:55;7.07;;;6.40;;
32523;SDS011;18965;52.242;20.886;2023-07-16T05:02:20;8.20;;;6.70;;
32523;SDS011;18965;52.242;20.886;2023-07-16T05:04:46;7.65;;;6.35;;
32523;SDS011;18965;52.242;20.886;2023-07-16T05:07:15;8.27;;;6.50;;
32523;SDS011;18965;52.242;20.886;2023-07-16T05:09:43;7.87;;;5.77;;
32523;SDS011;18965;52.242;20.886;2023-07-16T05:12:09;6.70;;;5.95;;
32523;SDS011;18965;52.242;20.886;2023-07-16T05:14:45;6.45;;;5.85;;
32523;SDS011;18965;52.242;20.886;2023-07-16T05:17:12;7.22;;;5.57;;
32523;SDS011;18965;52.242;20.886;2023-07-16T05:19:39;6.28;;;5.25;;
32523;SDS011;18965;52.242;20.886;2023-07-16T05:22:05;6.47;;;5.60;;
32523;SDS011;18965;52.242;20.886;2023-07-16T05:24:31;10.55;;;5.38;;
32523;SDS011;18965;52.242;20.886;2023-07-16T05:26:57;5.85;;;5.32;;
32523;SDS011;18965;52.242;20.886;2023-07-16T05:29:23;6.82;;;5.10;;
32523;SDS011;18965;52.242;20.886;2023-07-16T05:31:48;6.00;;;5.50;;
32523;SDS011;18965;52.242;20.886;2023-07-16T05:34:14;7.40;;;5.70;;
32523;SDS011;18965;52.242;20.886;2023-07-16T05:36:41;6.03;;;5.40;;
32523;SDS011;18965;52.242;20.886;2023-07-16T05:39:07;5.40;;;4.90;;
32523;SDS011;18965;52.242;20.886;2023-07-16T05:41:34;5.63;;;5.03;;
32523;SDS011;18965;52.242;20.886;2023-07-16T05:43:59;5.95;;;5.35;;
32523;SDS011;18965;52.242;20.886;2023-07-16T05:46:28;6.00;;;5.18;;
32523;SDS011;18965;52.242;20.886;2023-07-16T05:48:54;6.18;;;5.28;;
32523;SDS011;18965;52.242;20.886;2023-07-16T05:51:19;7.07;;;5.22;;
32523;SDS011;18965;52.242;20.886;2023-07-16T05:53:45;5.82;;;5.20;;
32523;SDS011;18965;52.242;20.886;2023-07-16T05:56:11;6.22;;;4.97;;
32523;SDS011;18965;52.242;20.886;2023-07-16T05:58:37;6.20;;;5.60;;
32523;SDS011;18965;52.242;20.886;2023-07-16T06:01:03;5.78;;;5.15;;
32523;SDS011;18965;52.242;20.886;2023-07-16T06:03:28;6.45;;;4.80;;
32523;SDS011;18965;52.242;20.886;2023-07-16T06:05:54;5.53;;;5.03;;
32523;SDS011;18965;52.242;20.886;2023-07-16T06:08:22;9.57;;;5.10;;
32523;SDS011;18965;52.242;20.886;2023-07-16T06:10:49;6.32;;;5.47;;
32523;SDS011;18965;52.242;20.886;2023-07-16T06:13:16;6.47;;;5.55;;
32523;SDS011;18965;52.242;20.886;2023-07-16T06:15:42;7.13;;;5.07;;
32523;SDS011;18965;52.242;20.886;2023-07-16T06:18:10;5.80;;;5.20;;
32523;SDS011;18965;52.242;20.886;2023-07-16T06:20:36;6.93;;;5.57;;
32523;SDS011;18965;52.242;20.886;2023-07-16T06:23:02;6.63;;;5.28;;
32523;SDS011;18965;52.242;20.886;2023-07-16T06:25:27;6.10;;;5.03;;
32523;SDS011;18965;52.242;20.886;2023-07-16T06:27:53;6.18;;;5.57;;
32523;SDS011;18965;52.242;20.886;2023-07-16T06:30:19;5.32;;;4.82;;
32523;SDS011;18965;52.242;20.886;2023-07-16T06:32:45;5.88;;;5.22;;
32523;SDS011;18965;52.242;20.886;2023-07-16T06:35:11;5.88;;;5.30;;
32523;SDS011;18965;52.242;20.886;2023-07-16T06:37:36;5.95;;;5.38;;
32523;SDS011;18965;52.242;20.886;2023-07-16T06:40:02;5.38;;;4.88;;
32523;SDS011;18965;52.242;20.886;2023-07-16T06:42:28;5.72;;;5.13;;
32523;SDS011;18965;52.242;20.886;2023-07-16T06:44:54;5.78;;;5.28;;
32523;SDS011;18965;52.242;20.886;2023-07-16T06:47:20;5.43;;;4.82;;
32523;SDS011;18965;52.242;20.886;2023-07-16T06:49:46;7.43;;;5.32;;
32523;SDS011;18965;52.242;20.886;2023-07-16T06:52:18;6.13;;;5.53;;
32523;SDS011;18965;52.242;20.886;2023-07-16T06:54:45;6.68;;;5.38;;
32523;SDS011;18965;52.242;20.886;2023-07-16T06:57:11;5.57;;;5.07;;
32523;SDS011;18965;52.242;20.886;2023-07-16T07:02:36;5.97;;;5.38;;
32523;SDS011;18965;52.242;20.886;2023-07-16T07:05:09;9.27;;;5.25;;
32523;SDS011;18965;52.242;20.886;2023-07-16T07:07:35;7.78;;;4.82;;
32523;SDS011;18965;52.242;20.886;2023-07-16T07:10:00;3.40;;;2.58;;
32523;SDS011;18965;52.242;20.886;2023-07-16T07:12:26;6.15;;;4.57;;
32523;SDS011;18965;52.242;20.886;2023-07-16T07:14:55;7.65;;;5.20;;
32523;SDS011;18965;52.242;20.886;2023-07-16T07:17:30;8.50;;;5.35;;
32523;SDS011;18965;52.242;20.886;2023-07-16T07:19:59;6.38;;;5.47;;
32523;SDS011;18965;52.242;20.886;2023-07-16T07:22:28;7.28;;;5.03;;
32523;SDS011;18965;52.242;20.886;2023-07-16T07:24:54;7.65;;;4.97;;
32523;SDS011;18965;52.242;20.886;2023-07-16T07:27:23;5.97;;;5.00;;
32523;SDS011;18965;52.242;20.886;2023-07-16T07:29:52;7.60;;;5.40;;
32523;SDS011;18965;52.242;20.886;2023-07-16T07:32:19;6.07;;;5.15;;
32523;SDS011;18965;52.242;20.886;2023-07-16T07:34:45;6.00;;;5.40;;
32523;SDS011;18965;52.242;20.886;2023-07-16T07:37:11;5.80;;;5.20;;
32523;SDS011;18965;52.242;20.886;2023-07-16T07:39:36;6.82;;;5.07;;
32523;SDS011;18965;52.242;20.886;2023-07-16T07:42:02;7.15;;;5.03;;
32523;SDS011;18965;52.242;20.886;2023-07-16T07:44:31;5.50;;;4.70;;
32523;SDS011;18965;52.242;20.886;2023-07-16T07:46:57;5.80;;;5.05;;
32523;SDS011;18965;52.242;20.886;2023-07-16T07:49:23;6.03;;;5.07;;
32523;SDS011;18965;52.242;20.886;2023-07-16T07:51:51;4.75;;;4.25;;
32523;SDS011;18965;52.242;20.886;2023-07-16T07:54:17;6.18;;;5.05;;
32523;SDS011;18965;52.242;20.886;2023-07-16T07:56:55;6.30;;;5.10;;
32523;SDS011;18965;52.242;20.886;2023-07-16T07:59:30;5.68;;;5.13;;
32523;SDS011;18965;52.242;20.886;2023-07-16T08:01:57;5.47;;;4.93;;
32523;SDS011;18965;52.242;20.886;2023-07-16T08:04:32;6.57;;;5.13;;
32523;SDS011;18965;52.242;20.886;2023-07-16T08:06:58;6.03;;;4.90;;
32523;SDS011;18965;52.242;20.886;2023-07-16T08:09:25;5.47;;;4.65;;
32523;SDS011;18965;52.242;20.886;2023-07-16T08:11:51;5.88;;;4.88;;
32523;SDS011;18965;52.242;20.886;2023-07-16T08:14:17;6.25;;;4.60;;
32523;SDS011;18965;52.242;20.886;2023-07-16T08:16:43;7.13;;;4.88;;
32523;SDS011;18965;52.242;20.886;2023-07-16T08:19:09;4.82;;;4.40;;
32523;SDS011;18965;52.242;20.886;2023-07-16T08:21:37;6.57;;;4.53;;
32523;SDS011;18965;52.242;20.886;2023-07-16T08:24:04;6.70;;;4.95;;
32523;SDS011;18965;52.242;20.886;2023-07-16T08:26:31;5.68;;;4.60;;
32523;SDS011;18965;52.242;20.886;2023-07-16T08:28:56;9.40;;;5.07;;
32523;SDS011;18965;52.242;20.886;2023-07-16T08:31:26;5.20;;;4.40;;
32523;SDS011;18965;52.242;20.886;2023-07-16T08:33:57;4.47;;;4.07;;
32523;SDS011;18965;52.242;20.886;2023-07-16T08:36:24;5.88;;;4.03;;
32523;SDS011;18965;52.242;20.886;2023-07-16T08:38:50;5.97;;;4.00;;
32523;SDS011;18965;52.242;20.886;2023-07-16T08:41:19;4.60;;;4.20;;
32523;SDS011;18965;52.242;20.886;2023-07-16T08:43:46;6.55;;;4.40;;
32523;SDS011;18965;52.242;20.886;2023-07-16T08:46:12;6.40;;;4.45;;
32523;SDS011;18965;52.242;20.886;2023-07-16T08:48:40;6.22;;;4.57;;
32523;SDS011;18965;52.242;20.886;2023-07-16T08:51:05;6.30;;;4.03;;
32523;SDS011;18965;52.242;20.886;2023-07-16T08:53:32;7.57;;;4.90;;
32523;SDS011;18965;52.242;20.886;2023-07-16T08:55:58;6.40;;;4.30;;
32523;SDS011;18965;52.242;20.886;2023-07-16T08:58:27;6.63;;;4.88;;
32523;SDS011;18965;52.242;20.886;2023-07-16T09:00:54;8.10;;;4.80;;
32523;SDS011;18965;52.242;20.886;2023-07-16T09:03:20;9.32;;;4.95;;
32523;SDS011;18965;52.242;20.886;2023-07-16T09:05:46;5.38;;;4.80;;
32523;SDS011;18965;52.242;20.886;2023-07-16T09:08:14;5.30;;;4.80;;
32523;SDS011;18965;52.242;20.886;2023-07-16T09:10:43;8.05;;;4.35;;
32523;SDS011;18965;52.242;20.886;2023-07-16T09:13:09;9.52;;;4.80;;
32523;SDS011;18965;52.242;20.886;2023-07-16T09:15:35;5.20;;;4.30;;
32523;SDS011;18965;52.242;20.886;2023-07-16T09:18:03;6.30;;;4.65;;
32523;SDS011;18965;52.242;20.886;2023-07-16T09:20:29;6.78;;;4.68;;
32523;SDS011;18965;52.242;20.886;2023-07-16T09:22:58;5.80;;;4.20;;
32523;SDS011;18965;52.242;20.886;2023-07-16T09:25:30;6.85;;;4.10;;
32523;SDS011;18965;52.242;20.886;2023-07-16T09:28:01;6.80;;;4.15;;
32523;SDS011;18965;52.242;20.886;2023-07-16T09:30:31;6.05;;;4.03;;
32523;SDS011;18965;52.242;20.886;2023-07-16T09:33:13;4.63;;;4.22;;
32523;SDS011;18965;52.242;20.886;2023-07-16T09:35:40;4.63;;;4.22;;
32523;SDS011;18965;52.242;20.886;2023-07-16T09:38:09;5.88;;;4.70;;
32523;SDS011;18965;52.242;20.886;2023-07-16T09:40:36;4.78;;;4.28;;
32523;SDS011;18965;52.242;20.886;2023-07-16T09:43:03;5.25;;;4.55;;
32523;SDS011;18965;52.242;20.886;2023-07-16T09:45:29;5.60;;;4.07;;
32523;SDS011;18965;52.242;20.886;2023-07-16T09:47:55;5.90;;;4.10;;
32523;SDS011;18965;52.242;20.886;2023-07-16T09:50:24;5.70;;;4.32;;
32523;SDS011;18965;52.242;20.886;2023-07-16T09:52:53;7.20;;;4.60;;
32523;SDS011;18965;52.242;20.886;2023-07-16T09:55:21;5.35;;;4.40;;
32523;SDS011;18965;52.242;20.886;2023-07-16T09:57:48;4.95;;;4.45;;
32523;SDS011;18965;52.242;20.886;2023-07-16T10:00:17;5.10;;;4.65;;
32523;SDS011;18965;52.242;20.886;2023-07-16T10:02:45;6.50;;;4.70;;
32523;SDS011;18965;52.242;20.886;2023-07-16T10:05:15;8.48;;;4.60;;
32523;SDS011;18965;52.242;20.886;2023-07-16T10:07:49;5.20;;;4.70;;
32523;SDS011;18965;52.242;20.886;2023-07-16T10:13:10;5.35;;;4.80;;
32523;SDS011;18965;52.242;20.886;2023-07-16T10:15:38;5.55;;;4.85;;
32523;SDS011;18965;52.242;20.886;2023-07-16T10:18:05;9.63;;;5.13;;
32523;SDS011;18965;52.242;20.886;2023-07-16T10:20:35;6.32;;;5.38;;
32523;SDS011;18965;52.242;20.886;2023-07-16T10:23:14;6.18;;;5.10;;
32523;SDS011;18965;52.242;20.886;2023-07-16T10:25:57;7.20;;;5.32;;
32523;SDS011;18965;52.242;20.886;2023-07-16T10:28:24;6.75;;;5.53;;
32523;SDS011;18965;52.242;20.886;2023-07-16T10:30:50;9.00;;;5.32;;
32523;SDS011;18965;52.242;20.886;2023-07-16T10:33:16;5.35;;;4.85;;
32523;SDS011;18965;52.242;20.886;2023-07-16T10:35:42;6.22;;;5.22;;
32523;SDS011;18965;52.242;20.886;2023-07-16T10:38:10;7.30;;;5.40;;
32523;SDS011;18965;52.242;20.886;2023-07-16T10:40:39;6.60;;;5.15;;
32523;SDS011;18965;52.242;20.886;2023-07-16T10:43:09;8.00;;;5.50;;
32523;SDS011;18965;52.242;20.886;2023-07-16T10:45:38;5.53;;;4.90;;
32523;SDS011;18965;52.242;20.886;2023-07-16T10:48:04;6.78;;;5.07;;
32523;SDS011;18965;52.242;20.886;2023-07-16T10:50:33;7.07;;;5.03;;
32523;SDS011;18965;52.242;20.886;2023-07-16T10:53:00;6.57;;;5.07;;
32523;SDS011;18965;52.242;20.886;2023-07-16T10:55:28;6.75;;;5.40;;
32523;SDS011;18965;52.242;20.886;2023-07-16T10:57:54;8.27;;;4.95;;
32523;SDS011;18965;52.242;20.886;2023-07-16T11:00:21;7.47;;;5.13;;
32523;SDS011;18965;52.242;20.886;2023-07-16T11:02:49;6.38;;;4.95;;
32523;SDS011;18965;52.242;20.886;2023-07-16T11:05:16;6.68;;;5.07;;
32523;SDS011;18965;52.242;20.886;2023-07-16T11:07:43;6.22;;;4.78;;
32523;SDS011;18965;52.242;20.886;2023-07-16T11:10:10;6.78;;;4.90;;
32523;SDS011;18965;52.242;20.886;2023-07-16T11:12:36;7.30;;;5.10;;
32523;SDS011;18965;52.242;20.886;2023-07-16T11:15:02;6.10;;;4.65;;
32523;SDS011;18965;52.242;20.886;2023-07-16T11:17:28;6.22;;;4.88;;
32523;SDS011;18965;52.242;20.886;2023-07-16T11:19:54;5.28;;;4.78;;
32523;SDS011;18965;52.242;20.886;2023-07-16T11:22:26;5.75;;;5.22;;
32523;SDS011;18965;52.242;20.886;2023-07-16T11:24:53;6.40;;;5.40;;
32523;SDS011;18965;52.242;20.886;2023-07-16T11:27:23;7.78;;;5.30;;
32523;SDS011;18965;52.242;20.886;2023-07-16T11:29:56;7.13;;;5.00;;
32523;SDS011;18965;52.242;20.886;2023-07-16T11:32:30;6.22;;;5.60;;
32523;SDS011;18965;52.242;20.886;2023-07-16T11:34:56;10.35;;;5.47;;
32523;SDS011;18965;52.242;20.886;2023-07-16T11:37:26;6.20;;;5.30;;
32523;SDS011;18965;52.242;20.886;2023-07-16T11:39:56;5.82;;;5.15;;
32523;SDS011;18965;52.242;20.886;2023-07-16T11:42:33;5.32;;;4.82;;
32523;SDS011;18965;52.242;20.886;2023-07-16T11:45:00;6.30;;;5.32;;
32523;SDS011;18965;52.242;20.886;2023-07-16T11:47:27;6.65;;;5.00;;
32523;SDS011;18965;52.242;20.886;2023-07-16T11:49:53;6.93;;;5.30;;
32523;SDS011;18965;52.242;20.886;2023-07-16T11:52:26;6.07;;;5.43;;
32523;SDS011;18965;52.242;20.886;2023-07-16T11:54:54;7.03;;;5.20;;
32523;SDS011;18965;52.242;20.886;2023-07-16T11:57:22;7.27;;;5.30;;
32523;SDS011;18965;52.242;20.886;2023-07-16T11:59:48;7.65;;;5.15;;
32523;SDS011;18965;52.242;20.886;2023-07-16T12:02:14;6.80;;;4.18;;
32523;SDS011;18965;52.242;20.886;2023-07-16T12:04:39;7.20;;;4.70;;
32523;SDS011;18965;52.242;20.886;2023-07-16T12:07:05;5.93;;;4.53;;
32523;SDS011;18965;52.242;20.886;2023-07-16T12:09:31;5.38;;;4.80;;
32523;SDS011;18965;52.242;20.886;2023-07-16T12:11:57;5.70;;;4.43;;
32523;SDS011;18965;52.242;20.886;2023-07-16T12:14:23;5.53;;;4.70;;
32523;SDS011;18965;52.242;20.886;2023-07-16T12:16:49;6.63;;;4.50;;
32523;SDS011;18965;52.242;20.886;2023-07-16T12:19:15;9.38;;;4.57;;
32523;SDS011;18965;52.242;20.886;2023-07-16T12:21:40;8.32;;;4.90;;
32523;SDS011;18965;52.242;20.886;2023-07-16T12:24:06;6.55;;;4.50;;
32523;SDS011;18965;52.242;20.886;2023-07-16T12:26:32;6.65;;;4.43;;
32523;SDS011;18965;52.242;20.886;2023-07-16T12:28:59;4.95;;;4.45;;
32523;SDS011;18965;52.242;20.886;2023-07-16T12:31:28;5.32;;;4.35;;
32523;SDS011;18965;52.242;20.886;2023-07-16T12:33:56;5.40;;;4.22;;
32523;SDS011;18965;52.242;20.886;2023-07-16T12:36:22;5.63;;;4.50;;
32523;SDS011;18965;52.242;20.886;2023-07-16T12:38:47;6.10;;;4.20;;
32523;SDS011;18965;52.242;20.886;2023-07-16T12:41:13;6.55;;;4.55;;
32523;SDS011;18965;52.242;20.886;2023-07-16T12:43:40;4.43;;;4.03;;
32523;SDS011;18965;52.242;20.886;2023-07-16T12:46:06;4.60;;;3.92;;
32523;SDS011;18965;52.242;20.886;2023-07-16T12:48:32;6.50;;;3.85;;
32523;SDS011;18965;52.242;20.886;2023-07-16T12:50:58;4.97;;;4.20;;
32523;SDS011;18965;52.242;20.886;2023-07-16T12:53:24;5.50;;;4.10;;
32523;SDS011;18965;52.242;20.886;2023-07-16T12:55:50;6.35;;;3.85;;
32523;SDS011;18965;52.242;20.886;2023-07-16T12:58:17;5.55;;;3.80;;
32523;SDS011;18965;52.242;20.886;2023-07-16T13:00:42;5.32;;;3.97;;
32523;SDS011;18965;52.242;20.886;2023-07-16T13:03:08;4.18;;;3.50;;
32523;SDS011;18965;52.242;20.886;2023-07-16T13:05:37;5.07;;;3.28;;
32523;SDS011;18965;52.242;20.886;2023-07-16T13:08:03;5.00;;;3.20;;
32523;SDS011;18965;52.242;20.886;2023-07-16T13:10:29;3.67;;;3.38;;
32523;SDS011;18965;52.242;20.886;2023-07-16T13:12:55;3.75;;;3.45;;
32523;SDS011;18965;52.242;20.886;2023-07-16T13:15:21;4.05;;;3.65;;
32523;SDS011;18965;52.242;20.886;2023-07-16T13:17:46;4.50;;;3.97;;
32523;SDS011;18965;52.242;20.886;2023-07-16T13:20:13;4.35;;;3.55;;
32523;SDS011;18965;52.242;20.886;2023-07-16T13:22:38;4.00;;;3.60;;
32523;SDS011;18965;52.242;20.886;2023-07-16T13:25:04;4.55;;;3.45;;
32523;SDS011;18965;52.242;20.886;2023-07-16T13:27:33;4.28;;;3.55;;
32523;SDS011;18965;52.242;20.886;2023-07-16T13:29:59;6.15;;;3.80;;
32523;SDS011;18965;52.242;20.886;2023-07-16T13:32:25;4.85;;;3.00;;
32523;SDS011;18965;52.242;20.886;2023-07-16T13:34:50;5.22;;;3.25;;
32523;SDS011;18965;52.242;20.886;2023-07-16T13:37:16;4.03;;;3.10;;
32523;SDS011;18965;52.242;20.886;2023-07-16T13:39:42;5.40;;;3.20;;
32523;SDS011;18965;52.242;20.886;2023-07-16T13:42:08;6.18;;;2.97;;
32523;SDS011;18965;52.242;20.886;2023-07-16T13:44:36;5.18;;;3.33;;
32523;SDS011;18965;52.242;20.886;2023-07-16T13:47:02;4.47;;;3.25;;
32523;SDS011;18965;52.242;20.886;2023-07-16T13:49:28;4.13;;;3.03;;
32523;SDS011;18965;52.242;20.886;2023-07-16T13:51:54;3.70;;;3.00;;
32523;SDS011;18965;52.242;20.886;2023-07-16T13:54:20;3.40;;;3.10;;
32523;SDS011;18965;52.242;20.886;2023-07-16T13:56:46;3.08;;;2.88;;
32523;SDS011;18965;52.242;20.886;2023-07-16T13:59:12;3.92;;;2.88;;
32523;SDS011;18965;52.242;20.886;2023-07-16T14:01:38;8.27;;;3.10;;
32523;SDS011;18965;52.242;20.886;2023-07-16T14:04:05;3.25;;;2.95;;
32523;SDS011;18965;52.242;20.886;2023-07-16T14:06:33;5.40;;;3.40;;
32523;SDS011;18965;52.242;20.886;2023-07-16T14:08:59;4.32;;;2.90;;
32523;SDS011;18965;52.242;20.886;2023-07-16T14:11:25;6.70;;;3.20;;
32523;SDS011;18965;52.242;20.886;2023-07-16T14:13:51;3.28;;;2.63;;
32523;SDS011;18965;52.242;20.886;2023-07-16T14:16:18;5.63;;;2.85;;
32523;SDS011;18965;52.242;20.886;2023-07-16T14:18:44;3.97;;;2.88;;
32523;SDS011;18965;52.242;20.886;2023-07-16T14:21:13;3.10;;;2.83;;
32523;SDS011;18965;52.242;20.886;2023-07-16T14:23:41;4.07;;;3.17;;
32523;SDS011;18965;52.242;20.886;2023-07-16T14:26:07;5.50;;;2.80;;
32523;SDS011;18965;52.242;20.886;2023-07-16T14:28:32;4.35;;;2.90;;
32523;SDS011;18965;52.242;20.886;2023-07-16T14:30:58;4.03;;;2.63;;
32523;SDS011;18965;52.242;20.886;2023-07-16T14:33:24;4.85;;;2.80;;
32523;SDS011;18965;52.242;20.886;2023-07-16T14:35:49;4.85;;;2.67;;
32523;SDS011;18965;52.242;20.886;2023-07-16T14:38:15;5.40;;;2.78;;
32523;SDS011;18965;52.242;20.886;2023-07-16T14:40:41;3.05;;;2.58;;
32523;SDS011;18965;52.242;20.886;2023-07-16T14:43:07;5.63;;;2.70;;
32523;SDS011;18965;52.242;20.886;2023-07-16T14:45:34;3.58;;;2.50;;
32523;SDS011;18965;52.242;20.886;2023-07-16T14:48:03;4.50;;;2.38;;
32523;SDS011;18965;52.242;20.886;2023-07-16T14:50:29;5.22;;;2.30;;
32523;SDS011;18965;52.242;20.886;2023-07-16T14:52:55;3.55;;;2.90;;